Time;durP1;ratioP1;P1;durP2;ratioP2;P2;SDS_P1;SDS_P2;PMS_P1;PMS_P2;Temp;Humidity;BMP_temperature;BMP_pressure;BME280_temperature;BME280_humidity;BME280_pressure;Samples;Min_cycle;Max_cycle;Signal;HPM_P1;HPM_P2
2023/03/02 00:02:09;;;;;;;35.00;22.53;;;;;;;1.20;96.07;96772.16;5051849;28;20259;-73
2023/03/02 00:04:46;;;;;;;33.33;23.00;;;;;;;1.21;95.75;96770.38;5052673;28;20228;-73
2023/03/02 00:07:15;;;;;;;31.10;22.13;;;;;;;1.17;96.03;96774.28;5051566;28;20274;-73
2023/03/02 00:09:42;;;;;;;30.73;22.73;;;;;;;1.07;96.13;96761.56;5052689;28;20255;-73
2023/03/02 00:12:07;;;;;;;34.13;23.70;;;;;;;1.05;96.43;96766.09;5052500;28;20190;-73
2023/03/02 00:14:33;;;;;;;36.33;23.10;;;;;;;1.06;96.62;96769.50;5052557;28;20198;-73
2023/03/02 00:16:58;;;;;;;31.00;22.57;;;;;;;1.04;96.81;96763.69;5051998;28;20285;-73
2023/03/02 00:19:23;;;;;;;31.70;20.90;;;;;;;0.94;97.55;96774.22;5051235;28;20204;-73
2023/03/02 00:21:49;;;;;;;34.10;21.93;;;;;;;0.92;97.67;96765.00;5052564;28;20190;-73
2023/03/02 00:24:14;;;;;;;32.83;20.83;;;;;;;0.87;98.19;96765.50;5052574;28;20224;-73
2023/03/02 00:26:40;;;;;;;34.20;21.60;;;;;;;0.72;98.95;96768.00;5052380;28;20213;-73
2023/03/02 00:29:05;;;;;;;33.43;22.33;;;;;;;0.64;99.76;96769.78;5052039;28;20522;-72
2023/03/02 00:31:31;;;;;;;33.93;22.23;;;;;;;0.56;100.00;96773.16;5052531;28;20654;-73
2023/03/02 00:33:56;;;;;;;33.67;23.10;;;;;;;0.52;100.00;96764.16;5052357;28;20248;-72
2023/03/02 00:36:22;;;;;;;34.97;23.33;;;;;;;0.51;100.00;96764.31;5052245;28;20277;-73
2023/03/02 00:38:50;;;;;;;33.50;22.43;;;;;;;0.53;100.00;96767.53;5052346;28;20190;-72
2023/03/02 00:41:17;;;;;;;33.70;22.67;;;;;;;0.52;100.00;96756.41;5052119;28;20229;-73
2023/03/02 00:43:42;;;;;;;32.33;22.27;;;;;;;0.48;100.00;96752.56;5054068;28;20201;-72
2023/03/02 00:46:15;;;;;;;40.67;22.43;;;;;;;0.41;100.00;96759.34;5056009;28;20201;-72
2023/03/02 00:48:41;;;;;;;35.73;22.40;;;;;;;0.38;100.00;96759.69;5054302;28;20185;-75
2023/03/02 00:51:06;;;;;;;31.80;21.90;;;;;;;0.44;100.00;96759.03;5056399;28;20185;-72
2023/03/02 00:53:33;;;;;;;32.33;22.53;;;;;;;0.41;100.00;96754.19;5056492;28;20564;-73
2023/03/02 00:55:59;;;;;;;30.73;21.03;;;;;;;0.51;100.00;96751.41;5056335;28;20201;-73
2023/03/02 00:58:26;;;;;;;35.27;22.70;;;;;;;0.36;100.00;96757.25;5056301;28;20194;-72
2023/03/02 01:00:51;;;;;;;34.03;22.63;;;;;;;0.39;100.00;96750.97;5056393;28;20198;-72
2023/03/02 01:03:17;;;;;;;34.40;22.63;;;;;;;0.45;100.00;96759.84;5056329;28;20193;-73
2023/03/02 01:05:42;;;;;;;34.53;22.13;;;;;;;0.46;100.00;96761.41;5054930;28;20218;-72
2023/03/02 01:08:07;;;;;;;34.67;21.90;;;;;;;0.43;100.00;96754.03;5056162;28;20209;-72
2023/03/02 01:10:33;;;;;;;34.50;22.17;;;;;;;0.40;100.00;96750.78;5056112;28;20277;-73
2023/03/02 01:12:59;;;;;;;32.50;21.73;;;;;;;0.33;100.00;96736.97;5034580;28;20556;-73
2023/03/02 01:15:24;;;;;;;34.10;21.83;;;;;;;0.31;100.00;96741.47;5042464;28;20202;-72
2023/03/02 01:17:50;;;;;;;31.00;22.13;;;;;;;0.30;100.00;96739.88;5055575;28;20197;-75
2023/03/02 01:20:16;;;;;;;35.17;22.03;;;;;;;0.35;100.00;96735.03;5054579;28;20673;-71
2023/03/02 01:22:42;;;;;;;36.23;22.97;;;;;;;0.33;100.00;96736.16;5054522;28;20218;-72
2023/03/02 01:25:08;;;;;;;37.37;23.87;;;;;;;0.31;100.00;96733.75;5055612;28;20214;-72
2023/03/02 01:27:33;;;;;;;30.37;22.60;;;;;;;0.31;100.00;96727.78;5055024;28;20197;-73
2023/03/02 01:29:58;;;;;;;37.47;24.17;;;;;;;0.25;100.00;96731.81;5053343;28;20228;-73
2023/03/02 01:32:24;;;;;;;39.17;22.97;;;;;;;0.25;100.00;96738.75;5055393;28;20201;-73
2023/03/02 01:34:49;;;;;;;32.83;23.80;;;;;;;0.21;100.00;96732.31;5055676;28;20324;-73
2023/03/02 01:37:14;;;;;;;37.37;23.03;;;;;;;0.19;100.00;96718.78;5055524;28;20197;-73
2023/03/02 01:39:40;;;;;;;37.57;24.47;;;;;;;0.15;100.00;96728.63;5054706;28;20194;-73
2023/03/02 01:42:05;;;;;;;39.53;23.87;;;;;;;0.16;100.00;96721.69;5055878;28;20265;-72
2023/03/02 01:44:39;;;;;;;38.77;24.87;;;;;;;0.06;100.00;96719.28;5055402;28;20735;-73
2023/03/02 01:47:12;;;;;;;36.30;24.33;;;;;;;-0.03;100.00;96710.75;5053947;28;20194;-73
2023/03/02 01:49:43;;;;;;;39.03;24.50;;;;;;;-0.09;100.00;96710.59;5054745;28;20248;-73
2023/03/02 01:52:11;;;;;;;36.73;25.13;;;;;;;-0.06;100.00;96708.50;5056095;28;20631;-72
2023/03/02 01:54:38;;;;;;;38.17;24.13;;;;;;;-0.14;100.00;96713.66;5055006;28;20596;-72
2023/03/02 01:57:05;;;;;;;37.30;25.13;;;;;;;-0.11;100.00;96702.22;5055213;28;20554;-73
2023/03/02 01:59:32;;;;;;;36.00;24.80;;;;;;;-0.18;100.00;96701.28;5054932;28;20239;-73
2023/03/02 02:02:02;;;;;;;40.10;24.80;;;;;;;-0.22;100.00;96705.13;5054955;28;20194;-74
2023/03/02 02:04:29;;;;;;;39.23;28.47;;;;;;;-0.30;100.00;96705.13;5046672;28;20588;-73
2023/03/02 02:07:06;;;;;;;38.87;26.63;;;;;;;-0.34;100.00;96693.56;5055235;28;20213;-73
2023/03/02 02:09:42;;;;;;;39.87;27.53;;;;;;;-0.30;100.00;96695.66;5054469;28;20190;-73
2023/03/02 02:12:16;;;;;;;39.77;26.23;;;;;;;-0.28;100.00;96693.69;5054908;28;20363;-74
2023/03/02 02:14:43;;;;;;;40.17;26.43;;;;;;;-0.33;100.00;96687.41;5055345;28;20197;-73
2023/03/02 02:17:10;;;;;;;39.13;26.90;;;;;;;-0.36;100.00;96688.56;5054034;28;20267;-74
2023/03/02 02:19:54;;;;;;;35.97;24.23;;;;;;;-0.31;100.00;96680.34;5054686;28;20344;-73
2023/03/02 02:22:33;;;;;;;36.23;24.27;;;;;;;-0.31;100.00;96691.44;5054959;28;20323;-73
2023/03/02 02:25:04;;;;;;;39.07;24.27;;;;;;;-0.32;100.00;96695.00;5054932;28;20296;-73
2023/03/02 02:27:32;;;;;;;39.20;24.67;;;;;;;-0.32;100.00;96689.03;5054600;28;20194;-73
2023/03/02 02:30:01;;;;;;;35.43;23.67;;;;;;;-0.32;100.00;96686.47;5053015;28;20642;-73
2023/03/02 02:32:31;;;;;;;37.93;24.13;;;;;;;-0.25;100.00;96674.56;5054894;28;20197;-72
2023/03/02 02:35:02;;;;;;;38.10;24.83;;;;;;;-0.31;100.00;96677.78;5054771;28;20245;-73
2023/03/02 02:37:33;;;;;;;40.03;23.87;;;;;;;-0.30;100.00;96676.81;5053553;28;20277;-73
2023/03/02 02:40:00;;;;;;;38.20;23.67;;;;;;;-0.27;100.00;96676.47;5054519;28;20182;-73
2023/03/02 02:42:37;;;;;;;34.87;23.80;;;;;;;-0.31;100.00;96670.06;5054524;28;20240;-73
2023/03/02 02:45:16;;;;;;;35.03;22.00;;;;;;;-0.30;100.00;96674.25;5054191;28;20214;-73
2023/03/02 02:47:42;;;;;;;39.10;25.93;;;;;;;-0.30;100.00;96667.31;5052078;28;20691;-73
2023/03/02 02:50:17;;;;;;;39.67;24.23;;;;;;;-0.24;100.00;96669.25;5054361;28;20273;-73
2023/03/02 02:52:44;;;;;;;37.50;23.60;;;;;;;-0.32;100.00;96668.44;5053290;28;20189;-74
2023/03/02 02:55:15;;;;;;;41.03;24.93;;;;;;;-0.32;100.00;96673.59;5054533;28;20285;-73
2023/03/02 02:57:40;;;;;;;43.20;24.87;;;;;;;-0.35;100.00;96666.19;5054110;28;20190;-74
2023/03/02 03:00:14;;;;;;;33.83;24.10;;;;;;;-0.29;100.00;96668.94;5054149;28;20192;-73
2023/03/02 03:02:44;;;;;;;37.80;24.70;;;;;;;-0.29;100.00;96670.69;5052822;28;20192;-73
2023/03/02 03:05:14;;;;;;;39.77;24.80;;;;;;;-0.32;100.00;96663.28;5053677;28;20260;-74
2023/03/02 03:07:39;;;;;;;38.87;23.67;;;;;;;-0.22;100.00;96669.88;5053613;28;20193;-74
2023/03/02 03:10:33;;;;;;;37.10;24.47;;;;;;;-0.27;100.00;96666.19;5048001;28;20709;-73
2023/03/02 03:12:59;;;;;;;39.50;24.83;;;;;;;-0.33;100.00;96662.47;5053888;28;20189;-73
2023/03/02 03:15:24;;;;;;;44.20;24.97;;;;;;;-0.41;100.00;96654.78;5053717;28;20246;-73
2023/03/02 03:17:57;;;;;;;36.97;24.97;;;;;;;-0.39;100.00;96655.41;5051347;28;20545;-73
2023/03/02 03:20:24;;;;;;;38.50;24.80;;;;;;;-0.42;100.00;96653.16;5052521;28;20202;-73
2023/03/02 03:22:52;;;;;;;42.13;25.33;;;;;;;-0.45;100.00;96656.84;5053525;28;20186;-74
2023/03/02 03:25:18;;;;;;;37.13;24.37;;;;;;;-0.49;100.00;96654.75;5053496;28;20259;-74
2023/03/02 03:27:44;;;;;;;40.10;24.87;;;;;;;-0.60;100.00;96650.75;5053639;28;20209;-74
2023/03/02 03:30:13;;;;;;;40.50;26.10;;;;;;;-0.54;100.00;96651.88;5051689;28;20194;-74
2023/03/02 03:32:40;;;;;;;40.47;24.40;;;;;;;-0.52;100.00;96653.34;5053563;28;20201;-72
2023/03/02 03:35:07;;;;;;;40.57;25.23;;;;;;;-0.57;100.00;96654.78;5053310;28;20304;-72
2023/03/02 03:37:34;;;;;;;40.63;24.30;;;;;;;-0.63;100.00;96653.66;5052979;28;20198;-73
2023/03/02 03:39:59;;;;;;;40.33;25.07;;;;;;;-0.68;100.00;96657.66;5052976;28;20204;-72
2023/03/02 03:42:25;;;;;;;38.60;24.80;;;;;;;-0.70;100.00;96657.81;5053259;28;20316;-73
2023/03/02 03:44:50;;;;;;;39.63;25.27;;;;;;;-0.72;100.00;96652.00;5052893;28;20709;-73
2023/03/02 03:47:16;;;;;;;39.10;25.07;;;;;;;-0.69;100.00;96653.47;5051101;28;20281;-73
2023/03/02 03:49:41;;;;;;;39.97;25.87;;;;;;;-0.77;100.00;96654.25;5052983;28;20193;-73
2023/03/02 03:52:06;;;;;;;44.83;26.87;;;;;;;-0.73;100.00;96657.34;5053140;28;20202;-73
2023/03/02 03:54:32;;;;;;;40.50;25.17;;;;;;;-0.69;100.00;96658.63;5052836;28;20558;-73
2023/03/02 03:56:57;;;;;;;42.73;26.27;;;;;;;-0.70;100.00;96655.25;5052706;28;20202;-73
2023/03/02 03:59:24;;;;;;;41.70;26.10;;;;;;;-0.69;100.00;96661.19;5051600;28;20205;-73
2023/03/02 04:01:53;;;;;;;40.20;25.87;;;;;;;-0.69;100.00;96663.78;5052954;28;20320;-73
2023/03/02 04:04:25;;;;;;;39.90;24.70;;;;;;;-0.74;100.00;96658.28;5044814;28;20233;-73
2023/03/02 04:06:52;;;;;;;44.43;26.53;;;;;;;-0.79;100.00;96663.13;5051326;28;20635;-72
2023/03/02 04:09:17;;;;;;;46.83;27.03;;;;;;;-0.79;100.00;96661.34;5052501;28;20213;-72
2023/03/02 04:11:44;;;;;;;37.33;25.10;;;;;;;-0.89;100.00;96664.06;5053186;28;20190;-73
2023/03/02 04:14:11;;;;;;;43.33;26.57;;;;;;;-0.85;100.00;96665.38;5053120;28;20285;-72
2023/03/02 04:16:37;;;;;;;43.87;29.23;;;;;;;-0.80;100.00;96669.22;5052036;28;20194;-72
2023/03/02 04:19:08;;;;;;;40.87;27.13;;;;;;;-0.83;100.00;96672.91;5051399;28;20204;-72
2023/03/02 04:21:37;;;;;;;45.13;27.07;;;;;;;-0.89;100.00;96679.47;5052546;28;20193;-72
2023/03/02 04:24:03;;;;;;;41.13;27.60;;;;;;;-0.87;100.00;96677.56;5052342;28;20684;-73
2023/03/02 04:26:28;;;;;;;40.43;26.70;;;;;;;-0.84;100.00;96679.81;5052666;28;20186;-72
2023/03/02 04:28:53;;;;;;;41.47;26.77;;;;;;;-0.88;100.00;96677.72;5051807;28;20190;-73
2023/03/02 04:31:19;;;;;;;42.10;28.23;;;;;;;-0.88;100.00;96675.16;5052305;28;20643;-73
2023/03/02 04:33:44;;;;;;;47.07;27.27;;;;;;;-0.94;100.00;96674.00;5052395;28;20670;-73
2023/03/02 04:36:09;;;;;;;42.60;26.80;;;;;;;-0.98;100.00;96671.91;5052409;28;20198;-73
2023/03/02 04:38:35;;;;;;;37.67;25.13;;;;;;;-0.95;100.00;96676.75;5052500;28;20657;-73
2023/03/02 04:41:01;;;;;;;43.17;26.70;;;;;;;-0.91;100.00;96671.13;5052350;28;20190;-73
2023/03/02 04:43:26;;;;;;;35.87;25.47;;;;;;;-0.92;100.00;96666.94;5052212;28;20527;-73
2023/03/02 04:45:52;;;;;;;43.03;26.07;;;;;;;-0.92;100.00;96666.16;5051083;28;20220;-73
2023/03/02 04:48:18;;;;;;;40.00;25.50;;;;;;;-0.92;100.00;96664.38;5042691;28;20194;-73
2023/03/02 04:50:44;;;;;;;43.73;26.63;;;;;;;-0.90;100.00;96661.66;5051859;28;20205;-73
2023/03/02 04:53:11;;;;;;;40.67;25.33;;;;;;;-0.86;100.00;96665.50;5052165;28;20189;-73
2023/03/02 04:55:36;;;;;;;42.93;25.63;;;;;;;-0.78;100.00;96669.88;5052054;28;20190;-74
2023/03/02 04:58:02;;;;;;;43.43;26.77;;;;;;;-0.98;100.00;96672.72;5052144;28;20205;-73
2023/03/02 05:00:27;;;;;;;43.53;26.17;;;;;;;-0.95;100.00;96672.41;5051875;28;20659;-72
2023/03/02 05:02:54;;;;;;;45.40;26.87;;;;;;;-0.94;100.00;96662.91;5052024;28;20281;-72
2023/03/02 05:05:22;;;;;;;42.17;27.50;;;;;;;-0.92;100.00;96672.09;5037591;28;20219;-74
2023/03/02 05:07:49;;;;;;;40.07;25.23;;;;;;;-0.91;100.00;96665.19;5052096;28;20547;-73
2023/03/02 05:10:15;;;;;;;40.90;26.13;;;;;;;-0.88;100.00;96672.56;5052085;28;20198;-73
2023/03/02 05:12:53;;;;;;;46.40;26.00;;;;;;;-0.86;100.00;96668.09;5051979;28;20260;-73
2023/03/02 05:15:31;;;;;;;43.83;26.60;;;;;;;-0.87;100.00;96671.63;5051787;28;20190;-73
2023/03/02 05:17:57;;;;;;;40.17;27.73;;;;;;;-0.85;100.00;96665.38;5051749;28;20202;-73
2023/03/02 05:20:26;;;;;;;39.13;25.13;;;;;;;-0.79;100.00;96666.50;5052241;28;20204;-73
2023/03/02 05:22:53;;;;;;;42.60;26.80;;;;;;;-0.80;100.00;96675.19;5051998;28;20663;-73
2023/03/02 05:25:19;;;;;;;46.07;28.23;;;;;;;-0.78;100.00;96670.66;5051718;28;20217;-73
2023/03/02 05:27:44;;;;;;;42.13;29.20;;;;;;;-0.66;100.00;96668.59;5052071;28;20186;-73
2023/03/02 05:30:10;;;;;;;44.10;27.67;;;;;;;-0.65;100.00;96667.63;5054378;28;20190;-72
2023/03/02 05:32:35;;;;;;;39.10;26.57;;;;;;;-0.68;100.00;96655.09;5055325;28;20239;-76
2023/03/02 05:35:01;;;;;;;40.57;26.70;;;;;;;-0.60;100.00;96666.19;5054268;28;20233;-74
2023/03/02 05:37:26;;;;;;;38.63;25.10;;;;;;;-0.63;100.00;96666.50;5055172;28;20247;-74
2023/03/02 05:39:51;;;;;;;36.37;24.57;;;;;;;-0.66;100.00;96668.59;5055570;28;20245;-74
2023/03/02 05:42:17;;;;;;;40.43;26.23;;;;;;;-0.64;100.00;96670.03;5055225;28;20222;-73
2023/03/02 05:44:42;;;;;;;40.93;24.93;;;;;;;-0.57;100.00;96665.88;5055090;28;20209;-73
2023/03/02 05:47:08;;;;;;;38.70;24.47;;;;;;;-0.61;100.00;96669.72;5049620;28;20197;-73
2023/03/02 05:49:33;;;;;;;43.93;27.53;;;;;;;-0.62;100.00;96667.31;5055158;28;20217;-73
2023/03/02 05:51:58;;;;;;;41.70;25.87;;;;;;;-0.68;100.00;96668.75;5055427;28;20568;-74
2023/03/02 05:54:24;;;;;;;41.40;24.77;;;;;;;-0.61;100.00;96666.34;5055765;28;20198;-75
2023/03/02 05:56:49;;;;;;;38.70;24.87;;;;;;;-0.57;100.00;96671.03;5055447;28;20198;-72
2023/03/02 05:59:14;;;;;;;39.13;25.37;;;;;;;-0.56;100.00;96677.75;5054795;28;20562;-71
2023/03/02 06:01:39;;;;;;;41.17;23.27;;;;;;;-0.56;100.00;96675.19;5055230;28;20211;-72
2023/03/02 06:04:05;;;;;;;44.97;30.67;;;;;;;-0.54;100.00;96675.03;5053776;28;20197;-72
2023/03/02 06:06:31;;;;;;;39.50;24.77;;;;;;;-0.52;100.00;96686.78;5054392;28;20725;-73
2023/03/02 06:08:56;;;;;;;38.17;23.10;;;;;;;-0.38;100.00;96674.22;5053567;28;20202;-72
2023/03/02 06:11:21;;;;;;;37.83;23.93;;;;;;;-0.36;100.00;96680.84;5053876;28;20592;-70
2023/03/02 06:13:46;;;;;;;41.17;24.83;;;;;;;-0.36;100.00;96682.59;5054988;28;21462;-71
2023/03/02 06:16:12;;;;;;;45.40;24.87;;;;;;;-0.37;100.00;96686.94;5053058;28;20280;-72
2023/03/02 06:18:37;;;;;;;36.70;23.07;;;;;;;-0.37;100.00;96686.13;5054479;28;20664;-71
2023/03/02 06:21:03;;;;;;;37.80;24.20;;;;;;;-0.34;100.00;96689.22;5054189;28;20673;-73
2023/03/02 06:23:29;;;;;;;36.93;24.53;;;;;;;-0.32;100.00;96697.56;5053248;28;20186;-71
2023/03/02 06:25:55;;;;;;;40.03;25.83;;;;;;;-0.33;100.00;96695.13;5054506;28;20206;-70
2023/03/02 06:28:20;;;;;;;40.00;24.00;;;;;;;-0.39;100.00;96696.59;5052299;28;20222;-70
2023/03/02 06:30:47;;;;;;;37.97;24.27;;;;;;;-0.34;100.00;96699.50;5054434;28;20277;-71
2023/03/02 06:33:14;;;;;;;43.73;26.13;;;;;;;-0.15;100.00;96698.38;5054274;28;20182;-74
2023/03/02 06:35:41;;;;;;;37.83;23.80;;;;;;;-0.06;100.00;96702.56;5053198;28;20190;-72
2023/03/02 06:38:07;;;;;;;39.43;24.60;;;;;;;-0.22;100.00;96699.97;5054240;28;20285;-72
2023/03/02 06:40:32;;;;;;;36.90;24.40;;;;;;;-0.18;100.00;96704.66;5053281;28;20277;-71
2023/03/02 06:42:59;;;;;;;42.93;24.33;;;;;;;-0.26;100.00;96698.69;5055680;28;20194;-71
2023/03/02 06:45:25;;;;;;;39.73;24.93;;;;;;;-0.27;100.00;96700.47;5051991;28;20210;-70
2023/03/02 06:47:50;;;;;;;38.67;25.60;;;;;;;-0.13;100.00;96707.56;5054246;28;20186;-72
2023/03/02 06:50:16;;;;;;;38.50;23.90;;;;;;;0.01;100.00;96706.06;5054283;28;20708;-70
2023/03/02 06:52:41;;;;;;;40.33;25.60;;;;;;;-0.02;100.00;96707.22;5056117;28;20598;-71
2023/03/02 06:55:07;;;;;;;38.43;25.17;;;;;;;0.07;100.00;96713.16;5058830;28;20573;-70
2023/03/02 06:57:32;;;;;;;39.73;24.63;;;;;;;0.24;100.00;96709.59;5053762;28;20655;-72
2023/03/02 07:00:00;;;;;;;38.73;26.30;;;;;;;0.21;100.00;96712.50;5053796;28;20605;-70
2023/03/02 07:02:25;;;;;;;47.53;37.40;;;;;;;0.27;100.00;96713.63;5053713;28;20589;-71
2023/03/02 07:04:50;;;;;;;41.00;26.47;;;;;;;0.18;100.00;96720.56;5053976;28;20267;-70
2023/03/02 07:07:16;;;;;;;37.13;25.37;;;;;;;0.17;100.00;96729.25;5053577;28;20703;-72
2023/03/02 07:09:41;;;;;;;42.30;27.43;;;;;;;0.16;100.00;96722.50;5052680;28;20202;-73
2023/03/02 07:12:06;;;;;;;39.53;26.97;;;;;;;0.23;100.00;96727.78;5053995;28;20277;-72
2023/03/02 07:14:35;;;;;;;37.37;25.10;;;;;;;0.16;100.00;96727.66;5053415;28;20685;-72
2023/03/02 07:17:03;;;;;;;37.13;24.53;;;;;;;0.09;100.00;96723.31;5052885;28;20220;-72
2023/03/02 07:19:28;;;;;;;35.73;25.57;;;;;;;0.13;100.00;96720.25;5052482;28;20201;-72
2023/03/02 07:21:53;;;;;;;35.20;23.77;;;;;;;0.12;100.00;96725.53;5052328;28;20193;-72
2023/03/02 07:24:19;;;;;;;38.33;24.97;;;;;;;0.08;100.00;96726.84;5052486;28;20186;-72
2023/03/02 07:26:44;;;;;;;38.23;25.40;;;;;;;0.21;100.00;96733.13;5053101;28;20659;-73
2023/03/02 07:29:10;;;;;;;39.20;26.57;;;;;;;0.15;100.00;96728.63;5052785;28;20515;-72
2023/03/02 07:31:35;;;;;;;40.63;30.83;;;;;;;0.21;100.00;96735.69;5053097;28;20186;-73
2023/03/02 07:34:00;;;;;;;35.90;23.93;;;;;;;0.26;100.00;96728.28;5053160;28;20280;-71
2023/03/02 07:36:26;;;;;;;36.93;23.87;;;;;;;0.36;100.00;96734.06;5052578;28;20198;-72
2023/03/02 07:38:51;;;;;;;39.97;24.63;;;;;;;0.45;100.00;96734.06;5053033;28;20191;-73
2023/03/02 07:41:16;;;;;;;35.10;23.00;;;;;;;0.43;100.00;96739.38;5048972;28;20543;-72
2023/03/02 07:43:42;;;;;;;40.37;23.17;;;;;;;0.68;100.00;96737.50;5053159;28;20223;-71
2023/03/02 07:46:08;;;;;;;34.90;22.17;;;;;;;0.73;100.00;96727.50;5051366;28;20675;-73
2023/03/02 07:48:33;;;;;;;37.50;22.23;;;;;;;0.64;100.00;96734.47;5051886;28;20259;-72
2023/03/02 07:51:00;;;;;;;38.97;22.93;;;;;;;0.69;100.00;96732.19;5052023;28;20277;-72
2023/03/02 07:53:26;;;;;;;38.37;22.70;;;;;;;0.98;100.00;96734.19;5046452;28;20182;-74
2023/03/02 07:55:51;;;;;;;38.03;23.63;;;;;;;0.71;100.00;96732.84;5053133;28;20639;-72
2023/03/02 07:58:17;;;;;;;33.70;23.13;;;;;;;0.91;100.00;96737.59;5052961;28;20295;-72
2023/03/02 08:00:42;;;;;;;33.03;21.83;;;;;;;0.95;100.00;96741.47;5050843;28;20202;-72
2023/03/02 08:03:08;;;;;;;30.80;22.33;;;;;;;0.91;100.00;96738.41;5052770;28;20204;-72
2023/03/02 08:05:33;;;;;;;37.37;23.27;;;;;;;0.89;100.00;96731.81;5053133;28;20202;-75
2023/03/02 08:07:58;;;;;;;36.00;22.73;;;;;;;1.08;100.00;96742.53;5052366;28;20670;-73
2023/03/02 08:10:24;;;;;;;38.77;22.83;;;;;;;1.11;100.00;96742.22;5051760;28;20198;-72
2023/03/02 08:12:49;;;;;;;32.07;20.97;;;;;;;1.11;100.00;96746.56;5051329;28;20204;-72
2023/03/02 08:15:14;;;;;;;33.03;21.33;;;;;;;0.99;100.00;96753.88;5052127;28;20642;-73
2023/03/02 08:17:40;;;;;;;34.97;22.23;;;;;;;1.07;100.00;96753.81;5034622;28;20185;-72
2023/03/02 08:20:07;;;;;;;35.80;22.53;;;;;;;1.28;100.00;96755.03;5072394;28;20321;-72
2023/03/02 08:22:32;;;;;;;31.47;20.73;;;;;;;1.34;100.00;96756.94;5059641;28;20866;-73
2023/03/02 08:24:58;;;;;;;34.00;21.90;;;;;;;1.38;100.00;96758.19;5052279;28;20205;-74
2023/03/02 08:27:23;;;;;;;34.97;22.27;;;;;;;1.30;100.00;96755.66;5032118;28;20187;-72
2023/03/02 08:29:49;;;;;;;36.57;22.53;;;;;;;1.32;100.00;96764.03;5052022;28;20198;-75
2023/03/02 08:32:15;;;;;;;34.60;20.97;;;;;;;1.25;100.00;96759.53;5053798;28;20626;-71
2023/03/02 08:34:40;;;;;;;36.13;21.13;;;;;;;1.43;100.00;96754.13;5053477;28;20304;-72
2023/03/02 08:37:06;;;;;;;36.47;22.00;;;;;;;1.48;100.00;96751.03;5052764;28;20275;-72
2023/03/02 08:39:32;;;;;;;34.37;21.33;;;;;;;1.78;100.00;96749.41;5052315;28;20640;-72
2023/03/02 08:41:57;;;;;;;34.50;20.90;;;;;;;1.87;100.00;96746.56;5052438;28;20193;-72
2023/03/02 08:44:23;;;;;;;28.70;20.90;;;;;;;1.78;99.59;96744.22;5050663;28;20241;-72
2023/03/02 08:46:49;;;;;;;36.33;20.70;;;;;;;1.87;98.97;96749.16;5052412;28;20646;-72
2023/03/02 08:49:16;;;;;;;31.73;21.50;;;;;;;2.09;98.06;96743.16;5051582;28;20256;-72
2023/03/02 08:51:41;;;;;;;36.03;22.23;;;;;;;2.09;97.78;96739.78;5052098;28;20182;-73
2023/03/02 08:54:07;;;;;;;29.20;20.33;;;;;;;2.08;97.91;96736.38;5051745;28;20223;-72
2023/03/02 08:56:35;;;;;;;30.30;19.73;;;;;;;2.56;97.12;96738.72;5051989;28;20193;-72
2023/03/02 08:59:06;;;;;;;31.57;21.27;;;;;;;2.62;95.36;96736.19;5051092;28;20511;-73
2023/03/02 09:01:34;;;;;;;32.13;24.23;;;;;;;2.54;95.28;96744.03;5051994;28;20236;-72
2023/03/02 09:04:00;;;;;;;31.87;25.93;;;;;;;2.79;94.64;96729.84;5052974;28;20591;-73
2023/03/02 09:06:30;;;;;;;32.97;23.13;;;;;;;2.52;93.89;96735.66;5056036;28;20271;-73
2023/03/02 09:08:56;;;;;;;32.13;20.87;;;;;;;2.76;94.35;96732.00;5055884;28;20224;-73
2023/03/02 09:11:22;;;;;;;30.90;20.27;;;;;;;2.95;92.45;96730.66;5055370;28;20217;-73
2023/03/02 09:13:47;;;;;;;29.90;19.33;;;;;;;3.11;92.11;96725.28;5055730;28;20193;-73
2023/03/02 09:16:13;;;;;;;28.27;19.57;;;;;;;2.75;92.64;96733.78;5055505;28;20202;-73
2023/03/02 09:18:38;;;;;;;32.00;20.87;;;;;;;2.80;93.26;96726.28;5055453;28;20178;-73
2023/03/02 09:21:04;;;;;;;29.93;20.33;;;;;;;2.67;94.69;96723.53;5055384;28;20194;-74
2023/03/02 09:23:30;;;;;;;32.07;20.27;;;;;;;2.91;92.38;96725.03;5055576;28;20647;-72
2023/03/02 09:25:55;;;;;;;29.37;19.60;;;;;;;2.87;93.78;96719.44;5053930;28;20287;-73
2023/03/02 09:28:21;;;;;;;31.00;20.53;;;;;;;3.08;92.53;96723.84;5055737;28;20671;-72
2023/03/02 09:30:52;;;;;;;27.63;18.97;;;;;;;3.23;92.22;96721.25;5056528;28;20197;-73
2023/03/02 09:33:19;;;;;;;31.30;19.57;;;;;;;3.17;92.75;96721.97;5055877;28;20276;-73
2023/03/02 09:35:46;;;;;;;25.70;18.80;;;;;;;3.42;90.52;96730.22;5055553;28;20235;-73
2023/03/02 09:38:15;;;;;;;28.13;19.20;;;;;;;3.66;89.06;96725.50;5054232;28;20202;-73
2023/03/02 09:40:52;;;;;;;28.37;18.97;;;;;;;3.58;89.54;96732.56;5055582;28;20232;-73
2023/03/02 09:44:05;;;;;;;32.83;24.67;;;;;;;3.94;87.92;96729.94;5055004;28;20190;-73
2023/03/02 09:46:33;;;;;;;26.57;19.23;;;;;;;3.58;87.98;96733.38;5032509;28;20675;-72
2023/03/02 09:49:09;;;;;;;31.03;19.37;;;;;;;3.44;89.70;96744.59;5055061;28;20194;-73
2023/03/02 09:51:41;;;;;;;26.17;18.40;;;;;;;4.10;87.91;96737.47;5055500;28;20182;-73
2023/03/02 09:54:14;;;;;;;29.57;21.77;;;;;;;4.40;84.50;96744.06;5054704;28;20693;-71
2023/03/02 09:56:46;;;;;;;26.37;23.40;;;;;;;4.11;85.09;96741.66;5053297;28;20201;-73
2023/03/02 09:59:33;;;;;;;26.93;21.53;;;;;;;3.96;87.09;96736.53;5054148;28;20190;-71
2023/03/02 10:02:21;;;;;;;24.80;19.27;;;;;;;3.96;86.62;96739.13;5054656;28;20211;-72
2023/03/02 10:04:51;;;;;;;28.63;22.27;;;;;;;4.02;86.48;96740.97;5054066;28;20233;-71
2023/03/02 10:07:25;;;;;;;25.83;20.97;;;;;;;4.36;86.05;96740.25;5054643;28;20197;-71
2023/03/02 10:09:51;;;;;;;26.70;21.83;;;;;;;4.42;84.68;96742.09;5055072;28;20189;-71
2023/03/02 10:12:44;;;;;;;28.37;20.40;;;;;;;4.43;84.67;96743.69;5054943;28;20190;-73
2023/03/02 10:15:09;;;;;;;27.20;20.60;;;;;;;4.48;84.08;96745.72;5051880;28;20185;-72
2023/03/02 10:17:53;;;;;;;26.47;18.67;;;;;;;4.62;84.37;96749.22;5054058;28;20679;-72
2023/03/02 10:20:26;;;;;;;26.07;18.07;;;;;;;4.66;84.01;96746.06;5053426;28;20221;-72
2023/03/02 10:22:58;;;;;;;26.07;18.13;;;;;;;4.68;83.64;96746.66;5054314;28;20222;-73
2023/03/02 10:25:41;;;;;;;26.23;18.80;;;;;;;4.39;85.07;96744.28;5053799;28;20250;-72
2023/03/02 10:28:18;;;;;;;25.03;17.77;;;;;;;4.64;85.15;96749.81;5053866;28;20198;-71
2023/03/02 10:30:45;;;;;;;25.47;20.57;;;;;;;5.09;83.10;96749.28;5054353;28;20261;-72
2023/03/02 10:33:15;;;;;;;27.27;20.47;;;;;;;5.40;81.06;96751.41;5054115;28;20251;-73
2023/03/02 10:35:46;;;;;;;27.20;20.27;;;;;;;5.62;78.41;96749.47;5054647;28;20226;-72
2023/03/02 10:38:23;;;;;;;28.20;19.83;;;;;;;5.29;79.62;96760.56;5053949;28;20643;-70
2023/03/02 10:40:58;;;;;;;29.13;19.83;;;;;;;5.13;80.10;96755.69;5053947;28;20564;-72
2023/03/02 10:43:38;;;;;;;25.30;17.53;;;;;;;4.76;82.45;96753.50;5053324;28;20194;-72
2023/03/02 10:46:07;;;;;;;26.30;17.90;;;;;;;4.91;83.00;96751.56;5067645;28;20217;-72
2023/03/02 10:48:56;;;;;;;28.50;25.30;;;;;;;4.69;82.70;96761.22;5054172;28;20232;-72
2023/03/02 10:51:29;;;;;;;26.43;19.30;;;;;;;5.10;82.14;96753.47;5053733;28;20197;-72
2023/03/02 10:54:10;;;;;;;27.43;20.00;;;;;;;4.99;82.88;96765.22;5053552;28;20654;-71
2023/03/02 10:56:36;;;;;;;26.63;19.97;;;;;;;4.69;83.78;96752.63;5052694;28;20240;-71
2023/03/02 10:59:23;;;;;;;28.60;20.47;;;;;;;5.00;82.33;96751.25;5053868;28;20185;-72
2023/03/02 11:02:01;;;;;;;28.27;20.70;;;;;;;5.18;81.43;96740.34;5054288;28;20631;-72
2023/03/02 11:04:27;;;;;;;26.73;19.77;;;;;;;5.33;80.70;96741.00;5048057;28;20627;-72
2023/03/02 11:06:53;;;;;;;27.03;20.50;;;;;;;5.40;80.54;96738.44;5052294;28;20201;-73
2023/03/02 11:09:18;;;;;;;25.97;19.87;;;;;;;5.32;80.67;96739.38;5052629;28;20248;-72
2023/03/02 11:11:53;;;;;;;28.23;18.57;;;;;;;5.45;80.60;96738.63;5053690;28;20247;-74
2023/03/02 11:14:18;;;;;;;28.03;19.33;;;;;;;5.62;79.44;96737.28;5053835;28;20231;-73
2023/03/02 11:16:44;;;;;;;27.70;19.23;;;;;;;5.66;79.14;96727.28;5052213;28;20599;-72
2023/03/02 11:19:16;;;;;;;26.43;19.83;;;;;;;5.76;78.34;96732.91;5053019;28;20220;-72
2023/03/02 11:22:02;;;;;;;23.67;18.57;;;;;;;5.80;78.64;96734.09;5053993;28;20190;-72